createdAt,value
2019-03-02T00:02:01.316Z,101156.16
2019-03-02T00:04:32.302Z,101156.25
2019-03-02T00:07:03.149Z,101151.58
2019-03-02T00:09:34.648Z,101153.34
2019-03-02T00:12:05.493Z,101144.66
2019-03-02T00:14:36.427Z,101140.00
2019-03-02T00:17:07.356Z,101138.29
2019-03-02T00:19:38.688Z,101137.92
2019-03-02T00:22:10.850Z,101140.53
2019-03-02T00:24:42.336Z,101144.50
2019-03-02T00:27:13.137Z,101144.22
2019-03-02T00:29:45.856Z,101142.34
2019-03-02T00:32:16.505Z,101141.87
2019-03-02T00:34:47.439Z,101137.83
2019-03-02T00:37:18.228Z,101137.91
2019-03-02T00:39:50.597Z,101142.37
2019-03-02T00:42:21.820Z,101133.41
2019-03-02T00:44:52.684Z,101136.03
2019-03-02T00:47:23.508Z,101133.58
2019-03-02T00:49:57.144Z,101133.21
2019-03-02T00:52:27.450Z,101129.12
2019-03-02T00:54:58.607Z,101129.28
2019-03-02T00:57:29.604Z,101119.38
2019-03-02T01:00:00.468Z,101117.79
2019-03-02T01:02:31.308Z,101125.27
2019-03-02T01:05:03.035Z,101123.51
2019-03-02T01:07:33.996Z,101121.27
2019-03-02T01:10:05.442Z,101123.72
2019-03-02T01:12:36.323Z,101118.81
2019-03-02T01:15:13.329Z,101118.44
2019-03-02T01:17:44.497Z,101119.59
2019-03-02T01:20:17.084Z,101118.07
2019-03-02T01:22:48.282Z,101110.67
2019-03-02T01:25:21.197Z,101112.09
2019-03-02T01:27:52.018Z,101111.32
2019-03-02T01:30:22.948Z,101110.27
2019-03-02T01:32:53.824Z,101110.02
2019-03-02T01:35:24.698Z,101107.59
2019-03-02T01:37:55.599Z,101111.32
2019-03-02T01:40:26.596Z,101112.79
2019-03-02T01:42:57.545Z,101103.30
2019-03-02T01:45:28.986Z,101102.53
2019-03-02T01:47:59.996Z,101104.77
2019-03-02T01:50:30.980Z,101099.55
2019-03-02T01:53:01.901Z,101099.17
2019-03-02T01:55:32.789Z,101099.91
2019-03-02T01:58:03.758Z,101103.88
2019-03-02T02:00:34.944Z,101106.66
2019-03-02T02:03:08.587Z,101102.94
2019-03-02T02:05:38.713Z,101099.91
2019-03-02T02:08:09.789Z,101090.38
2019-03-02T02:10:43.355Z,101089.23
2019-03-02T02:13:13.327Z,101091.89
2019-03-02T02:15:44.270Z,101088.45
2019-03-02T02:18:15.233Z,101089.39
2019-03-02T02:20:46.803Z,101085.71
2019-03-02T02:23:19.196Z,101083.17
2019-03-02T02:25:50.063Z,101076.27
2019-03-02T02:28:20.991Z,101078.63
2019-03-02T02:30:51.854Z,101077.61
2019-03-02T02:33:22.742Z,101070.45
2019-03-02T02:35:53.567Z,101066.98
2019-03-02T02:38:24.548Z,101066.61
2019-03-02T02:40:55.441Z,101068.11
2019-03-02T02:43:26.362Z,101064.77
2019-03-02T02:45:57.208Z,101061.58
2019-03-02T02:48:31.118Z,101067.67
2019-03-02T02:51:04.338Z,101066.32
2019-03-02T02:53:33.381Z,101059.98
2019-03-02T02:56:04.307Z,101063.33
2019-03-02T02:58:35.173Z,101055.03
2019-03-02T03:01:06.113Z,101059.41
2019-03-02T03:03:36.938Z,101064.36
2019-03-02T03:06:07.776Z,101059.94
2019-03-02T03:08:44.028Z,101052.83
2019-03-02T03:11:15.909Z,101052.53
2019-03-02T03:13:46.757Z,101048.89
2019-03-02T03:16:18.033Z,101061.31
2019-03-02T03:18:52.520Z,101051.50
2019-03-02T03:21:27.307Z,101047.37
2019-03-02T03:23:54.294Z,101043.82
2019-03-02T03:26:25.254Z,101048.27
2019-03-02T03:28:56.139Z,101041.11
2019-03-02T03:31:31.063Z,101046.95
2019-03-02T03:33:59.642Z,101045.86
2019-03-02T03:36:34.054Z,101048.75
2019-03-02T03:39:07.254Z,101043.23
2019-03-02T03:41:42.751Z,101040.05
2019-03-02T03:44:08.158Z,101040.41
2019-03-02T03:46:39.055Z,101043.98
2019-03-02T03:49:09.876Z,101039.33
2019-03-02T03:51:40.610Z,101032.05
2019-03-02T03:54:11.505Z,101029.36
2019-03-02T03:56:44.213Z,101023.05
2019-03-02T03:59:18.988Z,101022.97
2019-03-02T04:01:52.186Z,101027.50
2019-03-02T04:04:20.044Z,101026.77
2019-03-02T04:06:50.967Z,101030.62
2019-03-02T04:09:21.739Z,101024.06
2019-03-02T04:11:55.634Z,101023.87
2019-03-02T04:14:26.465Z,101031.42
2019-03-02T04:17:00.529Z,101023.34
2019-03-02T04:19:35.372Z,101017.90
2019-03-02T04:22:08.173Z,101020.34
2019-03-02T04:24:39.924Z,101020.73
2019-03-02T04:27:15.364Z,101020.88
2019-03-02T04:29:50.305Z,101030.19
2019-03-02T04:32:17.054Z,101025.89
2019-03-02T04:34:47.942Z,101030.38
2019-03-02T04:37:20.265Z,101024.59
2019-03-02T04:39:51.410Z,101030.03
2019-03-02T04:42:22.422Z,101032.64
2019-03-02T04:44:53.297Z,101026.83
2019-03-02T04:47:26.292Z,101030.97
2019-03-02T04:50:15.838Z,101026.25
2019-03-02T04:52:49.896Z,101028.88
2019-03-02T04:55:19.257Z,101028.94
2019-03-02T04:57:50.274Z,101034.54
2019-03-02T05:00:21.181Z,101034.44
2019-03-02T05:02:55.208Z,101037.23
2019-03-02T05:05:24.944Z,101036.48
2019-03-02T05:07:56.001Z,101037.56
2019-03-02T05:10:28.671Z,101034.46
2019-03-02T05:12:59.666Z,101030.53
2019-03-02T05:15:30.584Z,101029.28
2019-03-02T06:14:58.663Z,101037.58
2019-03-02T06:17:29.794Z,101037.20
2019-03-02T06:20:01.364Z,101043.77
2019-03-02T06:22:32.020Z,101044.09
2019-03-02T06:25:02.544Z,101045.48
2019-03-02T06:27:33.059Z,101046.22
2019-03-02T06:30:04.818Z,101044.76
2019-03-02T06:32:35.766Z,101040.63
2019-03-02T06:35:07.742Z,101038.97
2019-03-02T06:37:38.199Z,101042.79
2019-03-02T06:40:08.854Z,101042.89
2019-03-02T06:42:41.875Z,101042.97
2019-03-02T06:45:12.108Z,101047.39
2019-03-02T06:47:42.589Z,101053.27
2019-03-02T06:50:14.089Z,101047.96
2019-03-02T06:52:44.674Z,101045.93
2019-03-02T06:55:15.183Z,101043.10
2019-03-02T06:57:49.958Z,101045.05
2019-03-02T07:00:19.536Z,101052.04
2019-03-02T07:02:50.201Z,101055.16
2019-03-02T07:05:20.670Z,101058.20
2019-03-02T07:07:53.705Z,101057.56
2019-03-02T07:10:23.695Z,101051.88
2019-03-02T07:12:56.010Z,101053.42
2019-03-02T07:15:26.567Z,101040.20
2019-03-02T07:18:11.692Z,101042.29
2019-03-02T07:20:42.398Z,101035.38
2019-03-02T07:23:12.876Z,101034.36
2019-03-02T07:25:44.318Z,101037.48
2019-03-02T07:28:15.146Z,101035.16
2019-03-02T07:30:45.642Z,101037.84
2019-03-02T07:33:16.196Z,101047.21
2019-03-02T07:35:46.696Z,101037.86
2019-03-02T07:38:20.276Z,101034.38
2019-03-02T07:40:49.590Z,101038.37
2019-03-02T07:43:20.154Z,101038.20
2019-03-02T07:45:50.676Z,101035.39
2019-03-02T07:48:21.203Z,101041.20
2019-03-02T07:50:51.710Z,101048.66
2019-03-02T07:53:24.998Z,101047.94
2019-03-02T07:55:57.366Z,101041.05
2019-03-02T07:58:26.803Z,101038.84
2019-03-02T08:00:57.370Z,101038.35
2019-03-02T08:03:27.981Z,101043.42
2019-03-02T08:05:58.633Z,101046.74
2019-03-02T08:08:29.388Z,101043.59
2019-03-02T08:10:59.904Z,101048.83
2019-03-02T08:13:32.722Z,101048.28
2019-03-02T08:16:03.341Z,101044.98
2019-03-02T08:18:33.965Z,101038.02
2019-03-02T08:21:04.499Z,101035.77
2019-03-02T08:23:35.057Z,101037.91
2019-03-02T08:26:05.651Z,101036.51
2019-03-02T08:28:36.187Z,101035.39
2019-03-02T08:31:09.002Z,101038.02
2019-03-02T08:33:45.605Z,101036.34
2019-03-02T08:36:13.098Z,101030.84
2019-03-02T08:38:43.344Z,101026.63
2019-03-02T08:41:13.823Z,101023.94
2019-03-02T08:43:44.338Z,101024.70
2019-03-02T08:46:14.866Z,101017.10
2019-03-02T08:48:45.431Z,101027.39
2019-03-02T08:51:15.908Z,101027.41
2019-03-02T08:53:46.389Z,101027.97
2019-03-02T08:56:16.909Z,101016.44
2019-03-02T08:58:47.349Z,101019.53
2019-03-02T09:01:18.629Z,101012.91
2019-03-02T09:03:50.206Z,101011.86
2019-03-02T09:06:20.738Z,101016.25
2019-03-02T09:08:51.326Z,101014.48
2019-03-02T09:11:21.835Z,101016.92
2019-03-02T09:13:52.337Z,101013.73
2019-03-02T09:16:22.952Z,101010.73
2019-03-02T09:18:53.491Z,101012.97
2019-03-02T09:21:24.010Z,101018.59
2019-03-02T09:24:01.016Z,101014.64
2019-03-02T09:26:31.578Z,101013.44
2019-03-02T09:29:02.173Z,101020.09
2019-03-02T09:31:35.052Z,101013.49
2019-03-02T09:34:05.144Z,101019.02
2019-03-02T09:36:35.675Z,101014.34
2019-03-02T09:39:09.571Z,101008.06
2019-03-02T09:41:40.259Z,101010.78
2019-03-02T09:44:10.714Z,101014.53
2019-03-02T09:46:41.292Z,101005.84
2019-03-02T09:49:11.931Z,101014.09
2019-03-02T09:51:44.766Z,101015.59
2019-03-02T09:54:17.488Z,101014.11
2019-03-02T09:56:48.172Z,101014.11
2019-03-02T09:59:18.874Z,101020.19
2019-03-02T10:01:49.535Z,101015.38
2019-03-02T10:04:20.148Z,101019.13
2019-03-02T10:06:50.835Z,101012.58
2019-03-02T10:09:24.937Z,101008.92
2019-03-02T10:11:54.890Z,101010.47
2019-03-02T10:14:27.348Z,101013.27
2019-03-02T10:16:58.160Z,101010.87
2019-03-02T10:19:29.681Z,101008.98
2019-03-02T10:22:00.532Z,101007.17
2019-03-02T10:24:31.084Z,101017.39
2019-03-02T10:27:01.651Z,101015.16
2019-03-02T10:29:32.586Z,101013.81
2019-03-02T10:32:04.484Z,101011.09
2019-03-02T10:34:38.482Z,101004.75
2019-03-02T10:37:08.671Z,101011.67
2019-03-02T10:39:39.371Z,101010.17
2019-03-02T10:42:09.852Z,101007.78
2019-03-02T10:44:40.414Z,101005.98
2019-03-02T10:47:10.944Z,101007.73
2019-03-02T10:49:44.694Z,101000.97
2019-03-02T10:52:14.467Z,101011.23
2019-03-02T10:54:45.547Z,101006.05
2019-03-02T10:57:16.128Z,101000.27
2019-03-02T10:59:47.918Z,100999.17
2019-03-02T11:02:22.072Z,100994.55
2019-03-02T11:05:00.963Z,100993.31
2019-03-02T11:07:48.928Z,100996.64
2019-03-02T11:10:43.430Z,100994.19
2019-03-02T11:13:22.432Z,100994.60
2019-03-02T11:16:10.484Z,100999.48
2019-03-02T11:19:04.252Z,100995.23
2019-03-02T11:21:52.606Z,101004.73
2019-03-02T11:24:51.109Z,101000.63
2019-03-02T11:27:40.578Z,100979.91
2019-03-02T11:30:28.549Z,100978.95
2019-03-02T11:33:27.605Z,100971.16
2019-03-02T11:36:16.031Z,100972.83
2019-03-02T11:39:05.550Z,100973.98
2019-03-02T11:41:46.740Z,100967.48
2019-03-02T11:44:34.895Z,100965.38
2019-03-02T11:47:33.062Z,100966.46
2019-03-02T11:50:27.662Z,100963.41
2019-03-02T11:53:07.150Z,100964.59
2019-03-02T11:55:58.713Z,100959.70
2019-03-02T11:58:48.398Z,100954.71
2019-03-02T12:01:46.947Z,100946.47
2019-03-02T12:04:35.377Z,100945.58
2019-03-02T12:07:27.702Z,100938.15
2019-03-02T12:10:07.686Z,100941.34
2019-03-02T12:12:58.947Z,100938.83
2019-03-02T12:16:01.624Z,100940.64
2019-03-02T12:18:58.824Z,100936.70
2019-03-02T12:22:01.025Z,100930.59
2019-03-02T12:24:59.816Z,100929.13
2019-03-02T12:27:58.941Z,100942.73
2019-03-02T12:30:37.808Z,100934.63
2019-03-02T12:33:22.266Z,100930.16
2019-03-02T12:36:12.526Z,100923.10
2019-03-02T12:38:50.064Z,100925.89
2019-03-02T12:41:38.249Z,100917.52
2019-03-02T12:44:33.722Z,100914.31
2019-03-02T12:47:41.318Z,100910.68
2019-03-02T12:50:39.717Z,100903.34
2019-03-02T12:53:37.666Z,100904.67
2019-03-02T12:56:29.197Z,100902.89
2019-03-02T12:59:18.872Z,100894.30
2019-03-02T13:02:01.142Z,100891.30
2019-03-02T13:04:52.027Z,100887.86
2019-03-02T13:07:46.914Z,100878.33
2019-03-02T13:10:37.516Z,100882.91
2019-03-02T13:13:45.334Z,100875.53
2019-03-02T13:16:38.189Z,100871.17
2019-03-02T13:19:30.484Z,100866.84
2019-03-02T13:22:16.455Z,100861.09
2019-03-02T13:25:10.400Z,100849.38
2019-03-02T13:27:48.626Z,100862.77
2019-03-02T13:30:38.199Z,100864.20
2019-03-02T13:33:30.136Z,100865.42
2019-03-02T13:36:15.123Z,100854.87
2019-03-02T13:39:06.472Z,100853.72
2019-03-02T13:41:46.421Z,100852.82
2019-03-02T13:44:45.350Z,100841.95
2019-03-02T13:47:33.448Z,100842.58
2019-03-02T13:50:21.511Z,100836.67
2019-03-02T13:53:15.801Z,100830.09
2019-03-02T13:56:14.692Z,100841.27
2019-03-02T13:58:56.802Z,100836.16
2019-03-02T14:01:34.000Z,100830.27
2019-03-02T14:04:35.537Z,100824.28
2019-03-02T14:07:22.331Z,100820.44
2019-03-02T14:10:15.746Z,100822.77
2019-03-02T14:13:14.477Z,100813.03
2019-03-02T14:15:51.186Z,100809.83
2019-03-02T14:18:29.702Z,100808.08
2019-03-02T14:21:22.679Z,100808.00
2019-03-02T14:24:10.229Z,100804.59
2019-03-02T14:26:52.295Z,100801.01
2019-03-02T14:29:43.013Z,100790.47
2019-03-02T14:32:32.391Z,100787.56
2019-03-02T14:35:11.401Z,100792.01
2019-03-02T14:37:53.307Z,100799.84
2019-03-02T14:40:52.669Z,100792.98
2019-03-02T14:43:39.528Z,100784.98
2019-03-02T14:46:41.418Z,100783.77
2019-03-02T14:49:37.035Z,100782.77
2019-03-02T14:52:28.959Z,100785.77
2019-03-02T14:55:15.834Z,100778.86
2019-03-02T14:58:07.785Z,100780.25
2019-03-02T15:00:55.270Z,100770.67
2019-03-02T15:03:43.820Z,100770.42
2019-03-02T15:06:28.199Z,100767.59
2019-03-02T15:09:25.314Z,100776.27
2019-03-02T15:12:17.800Z,100774.67
2019-03-02T15:15:05.218Z,100771.38
2019-03-02T15:17:57.638Z,100769.52
2019-03-02T15:20:56.080Z,100769.19
2019-03-02T15:23:48.615Z,100765.89
2019-03-02T15:26:28.623Z,100770.16
2019-03-02T15:29:13.712Z,100763.41
2019-03-02T15:31:51.752Z,100764.92
2019-03-02T15:34:34.534Z,100766.97
2019-03-02T15:37:24.318Z,100764.10
2019-03-02T15:40:08.232Z,100763.39
2019-03-02T15:42:58.552Z,100762.44
2019-03-02T15:45:48.487Z,100766.65
2019-03-02T15:48:36.907Z,100752.63
2019-03-02T15:51:20.919Z,100753.23
2019-03-02T15:54:14.939Z,100746.38
2019-03-02T15:57:02.500Z,100742.30
2019-03-02T15:59:55.138Z,100737.74
2019-03-02T16:02:44.368Z,100743.95
2019-03-02T16:05:23.074Z,100735.84
2019-03-02T16:08:14.412Z,100739.31
2019-03-02T16:11:02.129Z,100735.97
2019-03-02T16:13:56.152Z,100731.04
2019-03-02T16:16:45.668Z,100732.22
2019-03-02T16:19:34.195Z,100734.74
2019-03-02T16:22:23.828Z,100734.84
2019-03-02T16:25:06.081Z,100735.93
2019-03-02T16:27:47.294Z,100723.27
2019-03-02T16:30:35.817Z,100722.44
2019-03-02T16:33:32.472Z,100716.80
2019-03-02T16:36:20.480Z,100719.33
2019-03-02T16:39:10.441Z,100715.72
2019-03-02T16:41:59.221Z,100711.66
2019-03-02T16:44:56.234Z,100709.14
2019-03-02T16:47:58.131Z,100705.89
2019-03-02T16:50:59.603Z,100703.16
2019-03-02T16:53:49.136Z,100697.05
2019-03-02T16:56:45.861Z,100694.42
2019-03-02T16:59:32.206Z,100696.67
2019-03-02T17:02:19.638Z,100700.61
2019-03-02T17:04:57.435Z,100703.62
2019-03-02T17:07:46.440Z,100698.11
2019-03-02T17:10:43.253Z,100692.23
2019-03-02T17:13:33.585Z,100697.61
2019-03-02T17:16:23.463Z,100687.34
2019-03-02T17:19:12.974Z,100684.36
2019-03-02T17:21:56.170Z,100675.03
2019-03-02T17:24:47.382Z,100672.03
2019-03-02T17:27:43.195Z,100669.17
2019-03-02T17:30:42.206Z,100658.14
2019-03-02T17:33:46.802Z,100656.59
2019-03-02T17:36:41.726Z,100658.16
2019-03-02T17:39:40.115Z,100662.42
2019-03-02T17:42:28.146Z,100669.59
2019-03-02T17:45:06.735Z,100670.89
2019-03-02T17:47:49.577Z,100669.58
2019-03-02T17:50:53.011Z,100669.94
2019-03-02T17:53:46.324Z,100666.34
2019-03-02T17:56:42.488Z,100672.56
2019-03-02T17:59:30.793Z,100676.64
2019-03-02T18:02:23.069Z,100676.99
2019-03-02T18:05:15.483Z,100672.31
2019-03-02T18:08:04.942Z,100671.95
2019-03-02T18:10:54.591Z,100681.52
2019-03-02T18:13:43.261Z,100680.20
2019-03-02T18:16:41.139Z,100682.69
2019-03-02T18:19:10.734Z,100687.45
2019-03-02T18:21:41.370Z,100678.72
2019-03-02T18:24:11.955Z,100671.69
2019-03-02T18:26:42.621Z,100667.93
2019-03-02T18:29:13.828Z,100664.37
2019-03-02T18:31:44.477Z,100666.27
2019-03-02T18:34:20.045Z,100667.01
2019-03-02T18:36:53.108Z,100656.28
2019-03-02T18:39:25.567Z,100663.42
2019-03-02T18:41:54.898Z,100652.09
2019-03-02T18:44:27.726Z,100656.98
2019-03-02T18:46:57.907Z,100647.11
2019-03-02T18:49:51.479Z,100641.47
2019-03-02T18:52:28.516Z,100639.44
2019-03-02T18:54:59.105Z,100646.02
2019-03-02T18:57:29.693Z,100644.23
2019-03-02T19:00:00.335Z,100645.41
2019-03-02T19:02:30.865Z,100643.87
2019-03-02T19:05:01.436Z,100641.47
2019-03-02T19:07:31.973Z,100632.40
2019-03-02T19:10:04.170Z,100636.87
2019-03-02T19:12:34.821Z,100627.63
2019-03-02T19:15:05.601Z,100620.23
2019-03-02T19:17:44.231Z,100624.17
2019-03-02T19:20:14.964Z,100628.27
2019-03-02T19:22:45.570Z,100627.19
2019-03-02T19:25:16.423Z,100623.69
2019-03-02T19:27:47.023Z,100616.06
2019-03-02T19:30:19.629Z,100616.41
2019-03-02T19:32:50.223Z,100611.16
2019-03-02T19:35:20.784Z,100610.91
2019-03-02T19:37:51.379Z,100596.22
2019-03-02T19:40:25.551Z,100587.50
2019-03-02T19:42:56.146Z,100582.73
2019-03-02T19:45:26.668Z,100571.60
2019-03-02T19:47:57.274Z,100566.48
2019-03-02T19:50:27.778Z,100555.96
2019-03-02T19:52:58.364Z,100552.12
2019-03-02T19:55:28.899Z,100547.12
2019-03-02T19:57:59.430Z,100538.64
2019-03-02T20:00:30.459Z,100533.48
2019-03-02T20:03:01.089Z,100535.52
2019-03-02T20:05:31.635Z,100536.59
2019-03-02T20:08:03.030Z,100534.33
2019-03-02T20:10:33.607Z,100533.75
2019-03-02T20:13:04.119Z,100536.95
2019-03-02T20:15:34.689Z,100533.04
2019-03-02T20:18:05.206Z,100526.09
2019-03-02T20:20:35.859Z,100525.39
2019-03-02T20:23:06.373Z,100516.80
2019-03-02T20:25:36.832Z,100519.03
2019-03-02T20:28:07.427Z,100511.87
2019-03-02T20:30:37.979Z,100502.42
2019-03-02T20:33:08.432Z,100501.95
2019-03-02T20:35:39.032Z,100500.88
2019-03-02T20:38:09.626Z,100499.56
2019-03-02T20:40:40.215Z,100489.15
2019-03-02T20:43:10.695Z,100488.55
2019-03-02T20:45:41.340Z,100487.74
2019-03-02T20:48:11.875Z,100496.19
2019-03-02T20:50:43.316Z,100486.98
2019-03-02T20:53:13.888Z,100491.15
2019-03-02T20:55:44.487Z,100482.65
2019-03-02T20:58:15.003Z,100480.00
2019-03-02T21:00:45.800Z,100470.70
2019-03-02T21:03:16.383Z,100464.61
2019-03-02T21:05:47.000Z,100459.67
2019-03-02T21:08:17.486Z,100456.55
2019-03-02T21:10:48.089Z,100460.73
2019-03-02T21:13:18.652Z,100442.26
2019-03-02T21:15:49.346Z,100443.43
2019-03-02T21:18:19.989Z,100430.17
2019-03-02T21:20:50.571Z,100421.62
2019-03-02T21:23:21.237Z,100419.11
2019-03-02T21:25:51.768Z,100418.06
2019-03-02T21:28:22.524Z,100416.95
2019-03-02T21:30:53.160Z,100418.88
2019-03-02T21:33:23.677Z,100420.30
2019-03-02T21:35:54.116Z,100409.49
2019-03-02T21:38:24.633Z,100406.03
2019-03-02T21:40:55.226Z,100406.52
2019-03-02T21:43:25.707Z,100399.73
2019-03-02T21:45:56.277Z,100400.81
2019-03-02T21:48:26.977Z,100396.49
2019-03-02T21:50:58.153Z,100387.08
2019-03-02T21:53:28.601Z,100385.38
2019-03-02T21:55:59.172Z,100380.48
2019-03-02T21:58:29.669Z,100376.20
2019-03-02T22:01:00.270Z,100374.39
2019-03-02T22:03:30.737Z,100369.37
2019-03-02T22:06:01.286Z,100372.19
2019-03-02T22:08:31.816Z,100364.54
2019-03-02T22:11:06.880Z,100362.02
2019-03-02T22:13:37.394Z,100365.46
2019-03-02T22:16:07.940Z,100350.64
2019-03-02T22:18:38.587Z,100354.12
2019-03-02T22:21:09.136Z,100349.32
2019-03-02T22:23:39.667Z,100338.91
2019-03-02T22:26:10.177Z,100338.76
2019-03-02T22:28:40.751Z,100339.14
2019-03-02T22:31:11.255Z,100337.77
2019-03-02T22:33:41.860Z,100331.66
2019-03-02T22:36:12.410Z,100321.42
2019-03-02T22:38:43.063Z,100318.92
2019-03-02T22:41:13.582Z,100320.58
2019-03-02T22:43:44.130Z,100321.33
2019-03-02T22:46:14.709Z,100312.93
2019-03-02T22:48:45.257Z,100314.34
2019-03-02T22:51:15.781Z,100315.94
2019-03-02T22:53:46.372Z,100316.31
2019-03-02T22:56:16.873Z,100309.86
2019-03-02T22:58:46.346Z,100306.66
2019-03-02T23:02:22.201Z,100292.88
2019-03-02T23:04:52.767Z,100300.17
2019-03-02T23:07:23.251Z,100298.58
2019-03-02T23:09:53.814Z,100299.90
2019-03-02T23:12:24.333Z,100291.41
2019-03-02T23:14:54.818Z,100285.87
2019-03-02T23:17:25.462Z,100288.50
2019-03-02T23:19:57.671Z,100280.23
2019-03-02T23:22:28.242Z,100290.94
2019-03-02T23:24:58.885Z,100285.48
2019-03-02T23:27:29.431Z,100282.62
2019-03-02T23:29:59.944Z,100273.66
2019-03-02T23:32:30.538Z,100281.19
2019-03-02T23:35:01.040Z,100273.89
2019-03-02T23:37:31.579Z,100280.22
2019-03-02T23:40:02.162Z,100271.28
2019-03-02T23:42:32.707Z,100265.95
2019-03-02T23:45:03.272Z,100256.09
2019-03-02T23:47:33.847Z,100248.48
2019-03-02T23:50:04.670Z,100248.13
2019-03-02T23:52:35.271Z,100245.78
2019-03-02T23:55:05.895Z,100240.78
2019-03-02T23:57:36.437Z,100244.28
